メインページ
METAR-TAF:

METAR-TAF

空港 :

ゲシュム島, イラン

緯度: 26-45-18N, 経度: 055-54-08E, 海抜: 12m

現時点の気象観測

当レポートは37分前の06:00(UTC)に作成
東/北東の風 6kt
気温 30°C
湿度 75%
気圧 1014 hPa
視程: 6000m

METAR: OIKQ 040600Z 07006KT 6000 NSC 30/25 Q1014 NOSIG

時間: 11:07 (06:37 UTC)


TAF: 見つかりません

4,000以上の空港の気象観測と天気予報(METAR報とTAF報)

利用可能な観測所は地図上に黄色い丸と赤い丸で示す。

丸の上にカーソルを重ねると観測所名を参照できる。

次にクリックすると気象観測と天気予報を参照できる。

マップの切り替え:黒色「×」印の緑ボタンをクリックして拡大、「-」印の緑ボタンをクリックして縮小、緑色の三角印をクリックして隣りの地図に切り替え


METAR-TAF: